Time;durP1;ratioP1;P1;durP2;ratioP2;P2;SDS_P1;SDS_P2;PMS_P1;PMS_P2;Temp;Humidity;BMP_temperature;BMP_pressure;BME280_temperature;BME280_humidity;BME280_pressure;Samples;Min_cycle;Max_cycle;Signal;HPM_P1;HPM_P2
2024/01/26 00:00:15;;;;;;;12.15;8.38;;;;;;;-144.05;90.38;56984.78;5100633;28;20044;-78
2024/01/26 00:02:41;;;;;;;14.50;8.75;;;;;;;-144.05;91.74;56991.13;5107552;28;20051;-79
2024/01/26 00:05:09;;;;;;;10.82;8.18;;;;;;;-144.05;90.42;56986.91;5100334;28;20035;-78
2024/01/26 00:07:35;;;;;;;12.88;8.50;;;;;;;-144.05;90.72;57003.88;5099136;28;20017;-78
2024/01/26 00:10:01;;;;;;;14.45;8.30;;;;;;;-144.05;91.15;56972.03;5100846;28;20035;-78
2024/01/26 00:12:28;;;;;;;12.25;8.23;;;;;;;-144.05;91.21;56967.78;5099683;28;20035;-78
2024/01/26 00:14:54;;;;;;;13.80;9.18;;;;;;;-144.05;91.35;56974.16;5101589;28;20195;-80
2024/01/26 00:17:20;;;;;;;12.20;8.60;;;;;;;-144.05;90.92;56965.66;5108923;28;20032;-77
2024/01/26 00:19:46;;;;;;;13.23;8.63;;;;;;;-144.05;91.66;56972.03;5116002;28;20080;-78
2024/01/26 00:22:13;;;;;;;11.98;8.50;;;;;;;-144.05;91.58;56997.50;5098205;28;20038;-78
2024/01/26 00:24:39;;;;;;;15.77;8.98;;;;;;;-144.05;90.92;56976.28;5107162;28;20028;-78
2024/01/26 00:27:06;;;;;;;15.20;9.18;;;;;;;-144.05;90.55;56982.66;5097544;28;20032;-77
2024/01/26 00:29:32;;;;;;;14.70;9.15;;;;;;;-144.05;91.03;56963.53;5110207;28;20476;-79
2024/01/26 00:31:59;;;;;;;12.10;8.88;;;;;;;-144.05;91.55;56955.03;5105816;28;20027;-78
2024/01/26 00:34:25;;;;;;;13.88;8.43;;;;;;;-144.05;91.72;57001.75;5096565;28;20107;-77
2024/01/26 00:36:51;;;;;;;15.05;8.23;;;;;;;-144.05;90.85;56974.16;5096084;28;20054;-78
2024/01/26 00:39:17;;;;;;;11.88;8.73;;;;;;;-144.05;90.45;56982.66;5095263;28;20491;-78
2024/01/26 00:41:43;;;;;;;13.55;8.60;;;;;;;-144.05;91.17;56993.25;5101354;28;20200;-78
2024/01/26 00:44:10;;;;;;;12.23;9.13;;;;;;;-144.05;91.45;56989.00;5100037;28;20031;-78
2024/01/26 00:46:39;;;;;;;11.48;8.18;;;9.00;99.90;;;-144.05;91.98;56946.53;5103073;28;20049;-78
2024/01/26 00:49:05;;;;;;;13.63;9.68;;;;;;;-144.05;93.07;56976.28;5102591;28;20052;-78
2024/01/26 00:51:32;;;;;;;12.82;8.98;;;;;;;-144.05;91.48;56974.16;5102098;28;20042;-78
2024/01/26 00:53:58;;;;;;;13.00;8.77;;;;;;;-144.05;91.67;56950.78;5111469;28;20452;-78
2024/01/26 00:56:24;;;;;;;13.00;9.52;;;;;;;-144.05;91.36;56969.91;5101110;28;20024;-78
2024/01/26 00:58:50;;;;;;;12.57;9.27;;;;;;;-144.05;90.88;56967.78;5111706;28;20184;-79
2024/01/26 01:01:16;;;;;;;12.82;9.48;;;;;;;-144.05;91.94;56972.03;5110368;28;20509;-80
2024/01/26 01:03:43;;;;;;;16.17;11.13;;;;;;;-144.05;91.53;56965.66;5095783;28;20334;-78
2024/01/26 01:06:10;;;;;;;15.45;10.70;;;;;;;-144.05;91.76;56976.28;5096693;28;20028;-81
2024/01/26 01:08:36;;;;;;;16.13;11.15;;;;;;;-144.05;92.60;56991.13;5095884;28;20020;-81
2024/01/26 01:11:02;;;;;;;17.75;11.45;;;;;;;-144.05;91.58;56978.41;5106470;28;20024;-79
2024/01/26 01:13:29;;;;;;;17.73;11.27;;;;;;;-144.05;90.98;56967.78;5105969;28;20027;-79
2024/01/26 01:15:55;;;;;;;17.10;11.30;;;;;;;-144.05;92.14;56995.38;5097258;28;20052;-82
2024/01/26 01:18:22;;;;;;;15.18;10.77;;;;;;;-144.05;91.30;56984.78;5102946;28;20020;-80
2024/01/26 01:20:48;;;;;;;17.95;11.30;;;;;;;-144.05;90.78;56982.66;5102233;28;20088;-80
2024/01/26 01:23:15;;;;;;;17.35;10.30;;;;;;;-144.05;90.37;56965.66;5112999;28;20077;-79
2024/01/26 01:25:41;;;;;;;15.68;10.57;;;;;;;-144.05;91.33;56976.28;5115120;27;20511;-80
2024/01/26 01:28:08;;;;;;;17.13;11.32;;;;;;;-144.05;91.05;56965.66;5100756;28;20512;-82
2024/01/26 01:30:34;;;;;;;16.20;11.07;;;;;;;-144.05;91.60;56997.50;5098794;28;20576;-81
2024/01/26 01:33:00;;;;;;;17.67;12.13;;;;;;;-144.05;91.62;56940.16;5104057;28;20024;-80
2024/01/26 01:35:26;;;;;;;17.60;12.30;;;;;;;-144.05;91.53;57006.00;5105039;28;20512;-80
2024/01/26 01:37:53;;;;;;;17.52;12.00;;;;;;;-144.05;90.75;56942.28;5100595;28;20107;-81
2024/01/26 01:40:19;;;;;;;18.67;12.10;;;;;;;-144.05;91.10;56961.41;5103133;28;20101;-80
2024/01/26 01:42:46;;;;;;;23.02;14.00;;;;;;;-144.05;91.69;56963.53;5113438;28;20031;-80
2024/01/26 01:45:14;;;;;;;21.17;14.50;;;7.10;99.90;;;-144.05;91.86;56976.28;5121140;28;20023;-81
2024/01/26 01:47:42;;;;;;;22.83;13.90;;;9.50;99.90;;;-144.05;91.68;56961.41;5111500;28;20024;-80
2024/01/26 01:50:09;;;;;;;24.02;15.15;;;9.50;99.90;;;-144.05;91.09;56959.28;5116472;28;20057;-81
2024/01/26 01:52:41;;;;;;;23.52;15.70;;;9.40;99.90;;;-144.05;91.34;56963.53;5104565;28;20028;-78
2024/01/26 01:55:14;;;;;;;28.67;16.42;;;9.60;99.90;;;-144.05;91.33;56972.03;5107382;28;20031;-78
2024/01/26 01:57:44;;;;;;;27.13;17.60;;;;;;;-144.05;91.66;56961.41;5101489;28;20022;-79
2024/01/26 02:00:17;;;;;;;24.80;16.02;;;;;;;-144.05;91.20;56957.16;5112302;28;20459;-78
2024/01/26 02:02:46;;;;;;;26.20;16.63;;;9.70;99.90;;;-144.05;91.61;56957.16;5096468;28;20048;-78
2024/01/26 02:05:14;;;;;;;27.10;17.52;;;9.60;99.90;;;-144.05;91.30;56976.28;5099586;28;20107;-79
2024/01/26 02:07:42;;;;;;;28.40;17.45;;;9.60;99.90;;;-144.05;91.98;56969.91;5099376;28;20479;-78
2024/01/26 02:10:10;;;;;;;27.25;17.90;;;9.70;99.90;;;-144.05;90.91;56965.66;5093089;28;20019;-79
2024/01/26 02:12:37;;;;;;;28.95;17.05;;;7.40;99.90;;;-144.05;90.67;56993.25;5111702;28;20023;-79
2024/01/26 02:15:07;;;;;;;28.10;16.77;;;9.70;99.90;;;-144.05;90.68;56980.53;5117362;28;20012;-80
2024/01/26 02:17:35;;;;;;;28.80;18.52;;;9.70;99.90;;;-144.05;91.70;56972.03;5112081;28;20048;-79
2024/01/26 02:20:06;;;;;;;29.27;18.08;;;;;;;-144.05;91.20;56959.28;5108187;28;20070;-78
2024/01/26 02:22:33;;;;;;;25.23;16.23;;;10.10;99.90;;;-144.05;90.64;56967.78;5112595;28;20052;-78
2024/01/26 02:25:00;;;;;;;31.58;18.73;;;;;;;-144.05;90.88;56959.28;5104840;28;20028;-80
2024/01/26 02:27:26;;;;;;;27.52;17.95;;;;;;;-144.05;91.48;57006.00;5097909;28;20031;-78
2024/01/26 02:29:52;;;;;;;27.52;18.75;;;;;;;-144.05;92.24;56997.50;5094970;28;20051;-76
2024/01/26 02:32:18;;;;;;;27.90;17.60;;;7.30;99.90;;;-144.05;91.93;56967.78;5092423;28;20051;-78
2024/01/26 02:34:45;;;;;;;29.05;17.73;;;;;;;-144.05;91.15;56969.91;5092211;28;20514;-79
2024/01/26 02:37:11;;;;;;;27.45;18.48;;;;;;;-144.05;90.61;56976.28;5106353;28;20042;-78
2024/01/26 02:39:38;;;;;;;24.83;17.45;;;9.70;99.90;;;-144.05;91.07;56965.66;5093668;28;20032;-77
2024/01/26 02:42:05;;;;;;;28.60;17.60;;;9.80;99.90;;;-144.05;90.31;57003.88;5107584;28;20046;-79
2024/01/26 02:44:34;;;;;;;25.77;16.92;;;9.70;99.90;;;-144.05;90.75;56967.78;5111582;28;20097;-80
2024/01/26 02:47:01;;;;;;;24.23;16.90;;;;;;;-144.05;90.45;56989.00;5110185;28;20030;-79
2024/01/26 02:49:29;;;;;;;27.77;16.45;;;7.40;99.90;;;-144.05;90.67;56980.53;5119678;28;20042;-79
2024/01/26 02:51:55;;;;;;;27.15;16.73;;;;;;;-144.05;89.63;56969.91;5110968;28;20032;-78
2024/01/26 02:54:21;;;;;;;22.90;15.43;;;;;;;-144.05;90.64;56963.53;5107478;28;20476;-78
2024/01/26 02:56:48;;;;;;;23.50;15.65;;;;;;;-144.05;90.60;56984.78;5114866;28;20028;-78
2024/01/26 02:59:14;;;;;;;22.80;15.32;;;;;;;-144.05;90.21;56959.28;5110144;28;20031;-78
2024/01/26 03:01:47;;;;;;;25.20;15.45;;;9.80;99.90;;;-144.05;90.12;56955.03;5099961;28;20046;-79
2024/01/26 03:04:13;;;;;;;20.83;14.30;;;;;;;-144.05;90.07;56974.16;5096888;28;20051;-78
2024/01/26 03:06:39;;;;;;;22.35;14.60;;;;;;;-144.05;89.39;56944.41;5100910;28;20019;-77
2024/01/26 03:09:07;;;;;;;21.65;14.20;;;;;;;-144.05;90.12;56969.91;5098386;28;21388;-78
2024/01/26 03:11:42;;;;;;;21.35;14.20;;;9.80;99.90;;;-144.05;89.52;56986.91;5110398;28;20077;-78
2024/01/26 03:14:09;;;;;;;;;;;9.90;99.90;;;-144.05;89.13;56972.03;5110881;28;20032;-78
2024/01/26 03:16:39;;;;;;;23.30;12.55;;;;;;;-144.05;88.88;56950.78;5107031;28;19912;-78
2024/01/26 03:19:07;;;;;;;17.98;12.77;;;;;;;-144.05;88.56;56969.91;5105349;28;20047;-78
2024/01/26 03:21:33;;;;;;;20.35;13.13;;;;;;;-144.05;88.56;56984.78;5104787;28;20028;-79
2024/01/26 03:24:02;;;;;;;17.55;12.50;;;;;;;-144.05;88.02;56980.53;5095379;28;20115;-78
2024/01/26 03:26:28;;;;;;;18.88;13.65;;;;;;;-144.05;88.31;56980.53;5108158;28;20059;-77
2024/01/26 03:28:55;;;;;;;20.17;13.38;;;;;;;-144.05;88.76;56986.91;5102114;28;20127;-79
2024/01/26 03:31:21;;;;;;;18.73;13.38;;;;;;;-144.05;88.15;56963.53;5104525;28;20061;-78
2024/01/26 03:33:47;;;;;;;20.17;13.38;;;9.80;99.90;;;-144.05;87.97;56967.78;5100331;28;20287;-80
2024/01/26 03:36:14;;;;;;;17.38;12.93;;;;;;;-144.05;87.72;56989.00;5102190;28;20114;-78
2024/01/26 03:38:41;;;;;;;23.58;13.48;;;;;;;-144.05;88.62;56957.16;5106709;28;20034;-79
2024/01/26 03:41:07;;;;;;;21.50;12.50;;;;;;;-144.05;88.54;56950.78;5103931;28;20032;-79
2024/01/26 03:43:35;;;;;;;19.17;14.18;;;;;;;-144.05;88.74;56982.66;5112428;28;20425;-78
2024/01/26 03:46:03;;;;;;;19.55;12.80;;;9.80;99.90;;;-144.05;87.54;56989.00;5109833;27;20031;-78
2024/01/26 03:48:30;;;;;;;20.65;13.57;;;;;;;-144.05;87.34;56974.16;5097443;28;20020;-78
2024/01/26 03:50:57;;;;;;;20.52;13.52;;;;;;;-144.05;87.44;56993.25;5110059;28;20088;-78
2024/01/26 03:53:23;;;;;;;21.40;13.15;;;;;;;-144.05;87.77;56974.16;5099207;28;20028;-78
2024/01/26 03:55:49;;;;;;;17.70;12.15;;;;;;;-144.05;87.62;56963.53;5101466;28;20028;-77
2024/01/26 03:58:16;;;;;;;17.55;12.27;;;;;;;-144.05;88.02;56978.41;5096875;28;20032;-79
2024/01/26 04:00:42;;;;;;;16.67;10.95;;;;;;;-144.05;87.92;56965.66;5101332;28;20445;-79
2024/01/26 04:03:08;;;;;;;17.10;11.45;;;;;;;-144.05;87.63;56959.28;5099366;28;20023;-80
2024/01/26 04:05:34;;;;;;;14.27;10.60;;;14.80;99.90;;;-144.05;86.71;56984.78;5105117;28;20077;-80
2024/01/26 04:08:00;;;;;;;15.13;10.48;;;;;;;-144.05;87.17;56976.28;5102323;28;20023;-78
2024/01/26 04:10:27;;;;;;;14.00;9.55;;;;;;;-144.05;86.34;56974.16;5102419;28;20481;-77
2024/01/26 04:12:53;;;;;;;12.02;9.15;;;;;;;-144.05;86.25;56957.16;5097642;28;20052;-77
2024/01/26 04:15:19;;;;;;;12.93;10.05;;;;;;;-144.05;87.20;56967.78;5099929;28;20467;-79
2024/01/26 04:17:45;;;;;;;12.70;9.63;;;;;;;-144.05;86.70;57023.00;5101195;28;20465;-78
2024/01/26 04:20:11;;;;;;;14.38;9.93;;;;;;;-144.05;87.53;56948.66;5103476;28;20696;-76
2024/01/26 04:22:38;;;;;;;17.00;11.10;;;;;;;-144.05;87.95;56965.66;5098584;28;20401;-78
2024/01/26 04:25:04;;;;;;;16.05;12.00;;;;;;;-144.05;88.12;56989.00;5104225;28;20035;-78
2024/01/26 04:27:31;;;;;;;15.27;12.05;;;;;;;-144.05;87.44;56980.53;5094442;28;20027;-78
2024/01/26 04:29:58;;;;;;;18.63;12.13;;;;;;;-144.05;88.25;56993.25;5101364;28;20024;-78
2024/01/26 04:32:24;;;;;;;15.60;10.95;;;;;;;-144.05;87.22;56993.25;5108675;28;20541;-78
2024/01/26 04:34:51;;;;;;;23.10;13.10;;;;;;;-144.05;88.08;56978.41;5118505;27;20031;-78
2024/01/26 04:37:17;;;;;;;17.65;10.98;;;;;;;-144.05;87.43;56982.66;5109366;28;20047;-79
2024/01/26 04:39:43;;;;;;;15.65;10.38;;;7.40;99.90;;;-144.05;86.82;56967.78;5111652;27;20107;-79
2024/01/26 04:42:09;;;;;;;13.65;10.07;;;;;;;-144.05;87.42;56993.25;5102066;28;20043;-76
2024/01/26 04:44:37;;;;;;;16.23;10.10;;;9.80;99.90;;;-144.05;86.67;56952.91;5100331;28;20028;-76
2024/01/26 04:47:04;;;;;;;15.40;8.50;;;;;;;-144.05;86.24;56993.25;5102822;28;20016;-78
2024/01/26 04:49:30;;;;;;;13.95;7.72;;;;;;;-144.05;86.44;56986.91;5098805;28;20016;-79
2024/01/26 04:51:56;;;;;;;10.77;7.45;;;10.20;99.90;;;-144.05;85.98;56980.53;5096293;28;20020;-79
2024/01/26 04:54:22;;;;;;;9.00;7.22;;;;;;;-144.05;86.00;56976.28;5108728;28;20528;-78
2024/01/26 04:56:49;;;;;;;10.32;6.97;;;;;;;-144.05;85.45;56967.78;5096011;28;20040;-78
2024/01/26 04:59:15;;;;;;;8.88;6.80;;;;;;;-144.05;86.10;56965.66;5102181;28;20024;-78
2024/01/26 05:01:41;;;;;;;8.65;7.55;;;6.70;99.90;;;-144.05;84.27;56986.91;5098148;28;20039;-77
2024/01/26 05:04:07;;;;;;;8.82;6.18;;;7.70;99.90;;;-144.05;85.22;56982.66;5106942;28;20106;-78
2024/01/26 05:06:33;;;;;;;10.18;7.68;;;7.30;99.90;;;-144.05;84.24;56963.53;5120149;28;20465;-79
2024/01/26 05:09:00;;;;;;;9.43;6.00;;;10.00;99.90;;;-144.05;85.92;56974.16;5105415;28;20023;-78
2024/01/26 05:11:25;;;;;;;8.15;5.50;;;14.40;99.90;;;-144.05;85.02;56980.53;5098080;28;20024;-77
2024/01/26 05:13:51;;;;;;;8.85;5.15;;;7.60;99.90;;;-144.05;85.28;56991.13;5110554;28;20034;-79
2024/01/26 05:16:17;;;;;;;8.88;5.95;;;7.30;99.90;;;-144.05;84.41;56955.03;5100863;28;20032;-78
2024/01/26 05:18:43;;;;;;;8.27;5.38;;;7.40;99.90;;;-144.05;84.14;56961.41;5095872;28;20036;-78
2024/01/26 05:21:09;;;;;;;9.55;5.60;;;14.50;99.90;;;-144.05;83.97;56997.50;5098972;28;20030;-78
2024/01/26 05:23:35;;;;;;;7.50;5.57;;;;;;;-144.05;83.72;56925.28;5100099;28;20024;-78
2024/01/26 05:26:02;;;;;;;9.43;6.03;;;;;;;-144.05;83.34;56976.28;5108762;28;20084;-76
2024/01/26 05:28:28;;;;;;;6.90;5.47;;;;;;;-144.05;83.44;56980.53;5104666;28;20449;-78
2024/01/26 05:30:54;;;;;;;8.15;5.70;;;;;;;-144.05;83.22;56969.91;5104830;28;20126;-76
2024/01/26 05:33:20;;;;;;;7.15;5.95;;;;;;;-144.05;83.78;56974.16;5099264;28;20036;-78
2024/01/26 05:35:46;;;;;;;7.85;6.25;;;;;;;-144.05;82.79;56982.66;5096019;28;20028;-76
2024/01/26 05:38:12;;;;;;;8.82;6.30;;;7.10;99.90;;;-144.05;82.70;56976.28;5100479;28;20034;-77
2024/01/26 05:40:38;;;;;;;11.80;6.72;;;;;;;-144.05;83.24;56969.91;5104651;28;20013;-77
2024/01/26 05:43:04;;;;;;;7.97;6.85;;;7.70;99.90;;;-144.05;84.27;56974.16;5111525;28;20079;-76
2024/01/26 05:45:30;;;;;;;11.85;8.00;;;7.60;99.90;;;-144.05;83.77;56997.50;5102769;28;20052;-76
2024/01/26 05:47:56;;;;;;;10.35;7.10;;;7.60;99.90;;;-144.05;83.69;56980.53;5111797;28;20027;-76
2024/01/26 05:50:22;;;;;;;11.13;7.85;;;7.70;99.90;;;-144.05;84.16;56989.00;5097246;28;20024;-76
2024/01/26 05:52:48;;;;;;;9.60;6.25;;;7.80;99.90;;;-144.05;83.61;56969.91;5099406;28;20031;-77
2024/01/26 05:55:15;;;;;;;9.15;6.88;;;7.80;99.90;;;-144.05;83.04;56976.28;5110069;28;20070;-77
2024/01/26 05:57:41;;;;;;;7.45;6.13;;;7.60;99.90;;;-144.05;84.07;56967.78;5096357;28;20374;-75
2024/01/26 06:00:08;;;;;;;9.02;6.72;;;8.10;99.90;;;-144.05;83.01;56974.16;5102446;28;20024;-78
2024/01/26 06:02:34;;;;;;;9.77;6.55;;;7.20;99.90;;;-144.05;82.99;56959.28;5101110;28;20027;-78
2024/01/26 06:05:00;;;;;;;8.77;6.40;;;;;;;-144.05;84.32;56976.28;5099167;28;20140;-77
2024/01/26 06:07:26;;;;;;;8.07;5.93;;;;;;;-144.05;83.49;56976.28;5111268;28;20016;-78
2024/01/26 06:09:55;;;;;;;8.57;5.68;;;10.40;99.90;;;-144.05;83.24;56986.91;5100470;28;20443;-78
2024/01/26 06:12:21;;;;;;;9.25;6.20;;;;;;;-144.05;83.06;56995.38;5097364;28;20035;-78
2024/01/26 06:14:47;;;;;;;6.13;5.10;;;;;;;-144.05;83.93;56986.91;5101224;28;20024;-78
2024/01/26 06:17:14;;;;;;;7.05;5.38;;;;;;;-144.05;82.67;56948.66;5106862;28;20219;-78
2024/01/26 06:19:40;;;;;;;7.05;5.43;;;;;;;-144.05;82.71;56969.91;5099499;28;20020;-80
2024/01/26 06:22:06;;;;;;;10.02;5.45;;;;;;;-144.05;83.16;56991.13;5104437;28;20118;-76
2024/01/26 06:24:32;;;;;;;6.93;5.70;;;;;;;-144.05;82.99;56969.91;5102250;28;20028;-77
2024/01/26 06:26:59;;;;;;;8.55;5.30;;;;;;;-144.05;83.79;56955.03;5109835;28;20031;-79
2024/01/26 06:29:25;;;;;;;9.02;4.60;;;;;;;-144.05;83.26;56984.78;5103294;28;20031;-77
2024/01/26 06:31:51;;;;;;;7.35;4.63;;;7.50;99.90;;;-144.05;82.73;56976.28;5097613;28;20127;-78
2024/01/26 06:34:18;;;;;;;5.18;3.83;;;;;;;-144.05;82.66;57008.13;5093702;28;20081;-75
2024/01/26 06:36:45;;;;;;;5.32;4.15;;;;;;;-144.05;82.12;56989.00;5094759;28;20032;-78
2024/01/26 06:39:12;;;;;;;6.03;4.32;;;;;;;-144.05;82.48;56991.13;5097512;28;20036;-78
2024/01/26 06:41:44;;;;;;;5.45;3.80;;;7.30;99.90;;;-144.05;81.58;56972.03;5097693;28;20062;-78
2024/01/26 06:44:11;;;;;;;5.00;3.20;;;10.50;99.90;;;-144.05;81.92;56978.41;5093424;28;20035;-76
2024/01/26 06:46:37;;;;;;;6.07;3.38;;;;;;;-144.05;81.70;56952.91;5094073;28;20019;-79
2024/01/26 06:49:04;;;;;;;4.60;3.08;;;;;;;-144.05;81.58;56976.28;5094087;28;20020;-78
2024/01/26 06:51:30;;;;;;;3.70;2.90;;;;;;;-144.05;82.15;56965.66;5093842;28;20024;-79
2024/01/26 06:53:56;;;;;;;4.65;2.90;;;7.60;99.90;;;-144.05;81.85;56967.78;5092791;28;20438;-80
2024/01/26 06:56:23;;;;;;;5.18;3.25;;;;;;;-144.05;82.34;56989.00;5093446;28;20485;-78
2024/01/26 06:58:49;;;;;;;4.05;2.38;;;;;;;-144.05;81.64;56946.53;5096574;28;20035;-78
2024/01/26 07:01:15;;;;;;;3.85;2.78;;;7.20;99.90;;;-144.05;81.54;56974.16;5093422;28;20119;-76
2024/01/26 07:03:41;;;;;;;4.55;2.30;;;;;;;-144.05;81.14;56961.41;5103403;28;20119;-78
2024/01/26 07:06:08;;;;;;;3.50;2.17;;;;;;;-144.05;80.96;56982.66;5101422;28;20075;-76
2024/01/26 07:08:34;;;;;;;3.22;1.95;;;7.80;99.90;;;-144.05;80.60;56984.78;5093249;28;20036;-77
2024/01/26 07:11:00;;;;;;;2.53;2.00;;;;;;;-144.05;80.34;56982.66;5092484;28;20030;-78
2024/01/26 07:13:27;;;;;;;4.78;2.10;;;;;;;-144.05;81.57;56972.03;5093197;28;20028;-78
2024/01/26 07:15:53;;;;;;;3.50;2.13;;;10.60;99.90;;;-144.05;81.71;56980.53;5092891;28;20043;-78
2024/01/26 07:18:20;;;;;;;3.28;1.50;;;;;;;-144.05;80.64;57001.75;5096634;28;20023;-77
2024/01/26 07:20:46;;;;;;;3.63;1.98;;;;;;;-144.05;82.03;56986.91;5095291;28;20096;-76
2024/01/26 07:23:12;;;;;;;3.15;1.75;;;6.90;99.90;;;-144.05;81.94;56974.16;5099898;28;20043;-79
2024/01/26 07:25:38;;;;;;;3.08;1.77;;;14.10;99.90;;;-144.05;82.16;56978.41;5108337;28;20028;-79
2024/01/26 07:28:07;;;;;;;4.45;1.92;;;8.00;99.90;;;-144.05;81.98;56984.78;5095847;28;20540;-78
2024/01/26 07:30:33;;;;;;;3.58;1.40;;;7.70;99.90;;;-144.05;81.81;56942.28;5094195;28;20538;-80
2024/01/26 07:32:59;;;;;;;2.63;1.38;;;7.20;99.90;;;-144.05;81.53;56978.41;5102124;28;20728;-79
2024/01/26 07:35:26;;;;;;;2.67;1.55;;;;;;;-144.05;80.96;56967.78;5093769;28;20048;-77
2024/01/26 07:37:52;;;;;;;3.72;1.60;;;7.90;99.90;;;-144.05;81.49;56984.78;5093099;28;20462;-78
2024/01/26 07:40:18;;;;;;;3.03;1.77;;;;;;;-144.05;81.10;56989.00;5100545;28;20020;-76
2024/01/26 07:42:44;;;;;;;2.15;1.70;;;6.90;99.90;;;-144.05;81.67;56993.25;5095898;28;20024;-75
2024/01/26 07:45:12;;;;;;;5.65;1.83;;;;;;;-144.05;80.94;56999.63;5096198;28;20512;-76
2024/01/26 07:47:38;;;;;;;2.95;1.42;;;;;;;-144.05;80.94;56967.78;5096568;28;20127;-77
2024/01/26 07:50:05;;;;;;;2.45;1.52;;;7.40;99.90;;;-144.05;80.42;56961.41;5096580;28;20038;-78
2024/01/26 07:52:31;;;;;;;2.60;1.45;;;7.00;99.90;;;-144.05;81.86;56976.28;5104579;28;20049;-78
2024/01/26 07:54:58;;;;;;;4.38;1.63;;;;;;;-144.05;82.19;56980.53;5119921;28;20087;-77
2024/01/26 07:57:25;;;;;;;4.40;1.40;;;7.20;99.90;;;-144.05;82.21;56967.78;5108218;28;20058;-79
2024/01/26 07:59:51;;;;;;;2.35;1.63;;;11.00;99.90;;;-144.05;82.40;56980.53;5109546;28;20019;-78
2024/01/26 08:02:18;;;;;;;2.40;1.77;;;;;;;-144.05;84.47;56980.53;5114134;28;20345;-79
2024/01/26 08:04:43;;;;;;;3.60;2.10;;;7.70;99.90;;;-144.05;84.34;56972.03;5100959;28;20031;-78
2024/01/26 08:07:09;;;;;;;3.22;2.00;;;7.70;99.90;;;-144.05;84.52;56976.28;5096494;28;20024;-79
2024/01/26 08:09:36;;;;;;;3.83;1.80;;;;;;;-144.05;86.52;56976.28;5097410;28;20016;-77
2024/01/26 08:12:02;;;;;;;4.55;2.00;;;;;;;-144.05;87.43;56961.41;5109114;28;20035;-77
2024/01/26 08:14:28;;;;;;;3.72;1.90;;;;;;;-144.05;86.51;56978.41;5106426;28;20028;-79
2024/01/26 08:16:54;;;;;;;4.78;2.53;;;7.70;99.90;;;-144.05;87.18;56989.00;5102691;28;20038;-81
2024/01/26 08:19:20;;;;;;;3.80;2.13;;;7.00;99.90;;;-144.05;87.96;56978.41;5112385;28;20107;-81
2024/01/26 08:21:46;;;;;;;4.43;1.90;;;;;;;-144.05;88.22;56989.00;5106961;28;20044;-78
2024/01/26 08:24:12;;;;;;;3.35;1.60;;;;;;;-144.05;89.72;56982.66;5106724;28;20024;-80
2024/01/26 08:26:39;;;;;;;4.18;1.95;;;;;;;-144.05;89.39;56972.03;5113724;28;20020;-81
2024/01/26 08:29:05;;;;;;;3.17;2.25;;;;;;;-144.05;89.71;56993.25;5120303;28;20070;-78
2024/01/26 08:31:48;;;;;;;4.93;1.75;;;10.00;99.90;;;-144.05;90.00;56997.50;5113145;28;20401;-80
2024/01/26 08:34:14;;;;;;;2.67;1.80;;;;;;;-144.05;90.53;56982.66;5098600;28;20119;-80
2024/01/26 08:36:41;;;;;;;2.92;2.03;;;;;;;-144.05;89.71;56967.78;5108495;28;20051;-80
2024/01/26 08:39:11;;;;;;;3.03;2.60;;;;;;;-144.05;90.20;56974.16;5102385;28;20028;-78
2024/01/26 08:41:43;;;;;;;2.45;1.70;;;;;;;-144.05;90.25;56978.41;5106809;28;20022;-78
2024/01/26 08:44:11;;;;;;;2.20;1.60;;;7.30;99.90;;;-144.05;90.79;56969.91;5105517;28;20036;-80
2024/01/26 08:46:38;;;;;;;2.72;1.90;;;10.50;99.90;;;-144.05;90.55;56980.53;5098624;28;20110;-81
2024/01/26 08:49:06;;;;;;;3.13;1.60;;;;;;;-144.05;90.93;56993.25;5095669;28;20016;-80
2024/01/26 08:51:32;;;;;;;2.25;1.55;;;;;;;-144.05;89.84;56997.50;5098179;28;20042;-79
2024/01/26 08:53:59;;;;;;;2.75;1.67;;;9.80;99.90;;;-144.05;89.41;56974.16;5106149;28;20404;-80
2024/01/26 08:56:25;;;;;;;6.32;1.75;;;;;;;-144.05;90.57;56986.91;5107687;28;20035;-80
2024/01/26 08:58:52;;;;;;;3.42;1.90;;;;;;;-144.05;90.14;56995.38;5102871;28;20050;-79
2024/01/26 09:01:19;;;;;;;3.70;1.95;;;;;;;-144.05;89.75;56989.00;5099670;28;20106;-80
2024/01/26 09:03:46;;;;;;;1.85;1.50;;;;;;;-144.05;89.13;56961.41;5100414;28;20429;-81
2024/01/26 09:06:12;;;;;;;3.22;1.90;;;8.60;99.90;;;-144.05;89.36;56989.00;5097511;28;20032;-80
2024/01/26 09:08:40;;;;;;;4.45;2.47;;;10.30;99.90;;;-144.05;89.01;56961.41;5097443;28;20024;-80
2024/01/26 09:11:06;;;;;;;4.00;2.35;;;;;;;-144.05;89.80;56989.00;5098009;28;20417;-81
2024/01/26 09:13:32;;;;;;;6.15;2.58;;;;;;;-144.05;89.42;56974.16;5096538;28;20035;-81
2024/01/26 09:15:59;;;;;;;3.30;2.47;;;;;;;-144.05;88.63;56982.66;5103327;28;20031;-78
2024/01/26 09:18:25;;;;;;;4.03;3.53;;;7.40;99.90;;;-144.05;89.72;56978.41;5096310;28;20064;-79
2024/01/26 09:20:51;;;;;;;9.40;3.75;;;;;;;-144.05;90.52;56976.28;5094971;28;20529;-79
2024/01/26 09:23:18;;;;;;;5.47;3.95;;;14.10;99.90;;;-144.05;89.96;56959.28;5095643;28;20114;-79
2024/01/26 09:25:45;;;;;;;4.22;3.40;;;;;;;-144.05;89.31;56984.78;5100446;28;20024;-81
2024/01/26 09:28:12;;;;;;;4.60;3.88;;;;;;;-144.05;90.00;56957.16;5099486;28;20028;-79
2024/01/26 09:30:38;;;;;;;7.25;4.45;;;7.50;99.90;;;-144.05;90.10;56980.53;5107941;28;20020;-81
2024/01/26 09:33:04;;;;;;;6.38;4.43;;;;;;;-144.05;90.27;56980.53;5099171;28;20028;-80
2024/01/26 09:35:30;;;;;;;4.45;3.80;;;;;;;-144.05;90.40;56969.91;5103990;28;20027;-79
2024/01/26 09:37:57;;;;;;;4.93;4.20;;;;;;;-144.05;90.71;56976.28;5097982;28;20027;-81
2024/01/26 09:40:24;;;;;;;5.70;4.30;;;10.90;99.90;;;-144.05;90.16;56993.25;5104677;28;20046;-79
2024/01/26 09:42:50;;;;;;;7.20;5.05;;;6.80;99.90;;;-144.05;89.73;56963.53;5102417;28;20054;-81
2024/01/26 09:45:16;;;;;;;7.35;4.55;;;8.10;99.90;;;-144.05;89.79;56999.63;5101477;28;20034;-78
2024/01/26 09:47:49;;;;;;;5.03;4.20;;;7.50;99.90;;;-144.05;90.29;56980.53;5097807;28;20460;-81
2024/01/26 09:50:20;;;;;;;5.45;4.10;;;11.20;99.90;;;-144.05;91.18;56974.16;5101130;28;20145;-79
2024/01/26 09:52:47;;;;;;;4.97;3.95;;;;;;;-144.05;90.67;56965.66;5109404;28;20503;-81
2024/01/26 09:55:15;;;;;;;5.60;3.80;;;7.40;99.90;;;-144.05;90.75;56946.53;5101542;28;20262;-82
2024/01/26 09:57:45;;;;;;;4.25;3.47;;;11.70;99.90;;;-144.05;90.38;56967.78;5103080;28;20066;-78
2024/01/26 10:00:13;;;;;;;3.75;3.35;;;14.40;99.90;;;-144.05;90.44;56965.66;5100753;28;20028;-80
2024/01/26 10:02:42;;;;;;;4.57;3.17;;;8.20;99.90;;;-144.05;89.93;56993.25;5103585;28;20024;-82
2024/01/26 10:05:08;;;;;;;3.88;3.47;;;8.20;99.90;;;-144.05;89.52;56948.66;5100014;28;20503;-81
2024/01/26 10:07:34;;;;;;;5.68;3.10;;;8.10;99.90;;;-144.05;90.62;56984.78;5103846;28;20119;-79
2024/01/26 10:10:00;;;;;;;3.67;3.22;;;7.50;99.90;;;-144.05;90.61;56984.78;5101703;28;20050;-79
2024/01/26 10:12:26;;;;;;;3.13;2.63;;;;;;;-144.05;91.15;56959.28;5098994;28;20477;-79
2024/01/26 10:15:10;;;;;;;3.30;2.75;;;11.00;99.90;;;-144.05;90.85;56957.16;5106952;28;20031;-78
2024/01/26 10:17:39;;;;;;;4.15;2.40;;;8.10;99.90;;;-144.05;90.58;56959.28;5104994;28;20023;-80
2024/01/26 10:20:15;;;;;;;5.10;2.40;;;14.70;99.90;;;-144.05;89.53;56946.53;5109104;28;20027;-78
2024/01/26 10:22:45;;;;;;;3.35;2.33;;;7.50;99.90;;;-144.05;89.38;56984.78;5105070;28;20020;-79
2024/01/26 10:25:14;;;;;;;2.88;2.13;;;7.30;99.90;;;-144.05;89.71;56955.03;5108949;28;20036;-80
2024/01/26 10:27:41;;;;;;;4.40;2.22;;;11.00;99.90;;;-144.05;90.19;56980.53;5110121;28;20028;-79
2024/01/26 10:30:08;;;;;;;2.75;2.13;;;7.30;99.90;;;-144.05;89.04;56972.03;5102092;28;20043;-80
2024/01/26 10:32:35;;;;;;;4.10;2.15;;;;;;;-144.05;89.55;56959.28;5102179;28;20032;-81
2024/01/26 10:35:07;;;;;;;4.03;2.83;;;8.40;99.90;;;-144.05;89.13;56976.28;5096581;28;20534;-81
2024/01/26 10:37:35;;;;;;;2.20;1.95;;;11.20;99.90;;;-144.05;89.64;56967.78;5107112;28;20078;-78
2024/01/26 10:40:04;;;;;;;3.30;2.10;;;11.30;99.90;;;-144.05;89.69;56931.66;5107187;28;20016;-79
2024/01/26 10:42:30;;;;;;;2.97;2.00;;;;;;;-144.05;91.05;56963.53;5103469;28;20556;-80